createdAt,value
2022-10-18T00:00:18.374Z,17.31
2022-10-18T00:02:45.039Z,17.29
2022-10-18T00:05:11.737Z,17.35
2022-10-18T00:07:38.381Z,17.35
2022-10-18T00:10:05.744Z,17.35
2022-10-18T00:12:34.761Z,17.36
2022-10-18T00:15:01.928Z,17.35
2022-10-18T00:17:28.793Z,17.37
2022-10-18T00:19:55.971Z,17.35
2022-10-18T00:22:22.766Z,17.37
2022-10-18T00:24:49.431Z,17.38
2022-10-18T00:27:16.071Z,17.40
2022-10-18T00:29:42.731Z,17.40
2022-10-18T00:32:09.500Z,17.38
2022-10-18T00:34:36.160Z,17.39
2022-10-18T00:37:02.789Z,17.40
2022-10-18T00:39:29.469Z,17.37
2022-10-18T00:41:56.183Z,17.38
2022-10-18T00:44:25.858Z,17.39
2022-10-18T00:46:55.235Z,17.38
2022-10-18T00:49:32.312Z,17.40
2022-10-18T00:52:16.172Z,17.37
2022-10-18T00:54:44.913Z,17.38
2022-10-18T00:57:12.099Z,17.38
2022-10-18T00:59:38.993Z,17.36
2022-10-18T01:02:07.298Z,17.36
2022-10-18T01:04:34.597Z,17.34
2022-10-18T01:07:19.329Z,17.33
2022-10-18T01:10:09.771Z,17.33
2022-10-18T01:12:50.811Z,17.30
2022-10-18T01:15:27.635Z,17.29
2022-10-18T01:18:25.791Z,17.33
2022-10-18T01:21:04.652Z,17.32
2022-10-18T01:23:53.201Z,17.33
2022-10-18T01:26:52.337Z,17.33
2022-10-18T01:30:06.920Z,17.31
2022-10-18T01:32:54.449Z,17.33
2022-10-18T01:35:30.875Z,17.34
2022-10-18T01:37:59.973Z,17.34
2022-10-18T01:40:26.975Z,17.37
2022-10-18T01:42:53.757Z,17.38
2022-10-18T01:45:21.900Z,17.35
2022-10-18T01:47:48.716Z,17.36
2022-10-18T01:50:15.793Z,17.35
2022-10-18T01:52:50.074Z,17.41
2022-10-18T01:55:16.911Z,17.43
2022-10-18T01:57:57.577Z,17.43
2022-10-18T02:00:45.704Z,17.45
2022-10-18T02:03:17.976Z,17.46
2022-10-18T02:05:47.574Z,17.45
2022-10-18T02:08:31.981Z,17.49
2022-10-18T02:11:07.361Z,17.50
2022-10-18T02:13:39.289Z,17.51
2022-10-18T02:16:11.230Z,17.51
2022-10-18T02:18:41.759Z,17.56
2022-10-18T02:21:11.653Z,17.55
2022-10-18T02:23:38.735Z,17.56
2022-10-18T02:26:06.172Z,17.57
2022-10-18T02:28:32.921Z,17.61
2022-10-18T02:31:06.090Z,17.59
2022-10-18T02:33:34.506Z,17.61
2022-10-18T02:36:06.736Z,17.64
2022-10-18T02:38:33.677Z,17.67
2022-10-18T02:41:00.348Z,17.67
2022-10-18T02:43:27.077Z,17.65
2022-10-18T02:45:53.822Z,17.64
2022-10-18T02:48:20.571Z,17.66
2022-10-18T02:50:47.239Z,17.68
2022-10-18T02:53:13.958Z,17.73
2022-10-18T02:55:40.590Z,17.72
2022-10-18T02:58:07.359Z,17.73
2022-10-18T03:00:33.976Z,17.73
2022-10-18T03:03:00.661Z,17.76
2022-10-18T03:05:27.313Z,17.77
2022-10-18T03:07:56.973Z,17.73
2022-10-18T03:10:23.642Z,17.76
2022-10-18T03:12:50.295Z,17.77
2022-10-18T03:15:16.966Z,17.79
2022-10-18T03:17:43.657Z,17.81
2022-10-18T03:20:10.898Z,17.82
2022-10-18T03:22:40.692Z,17.85
2022-10-18T03:25:07.609Z,17.86
2022-10-18T03:27:34.527Z,17.87
2022-10-18T03:30:01.318Z,17.84
2022-10-18T03:32:27.970Z,17.85
2022-10-18T03:34:55.158Z,17.90
2022-10-18T03:37:21.848Z,17.88
2022-10-18T03:39:48.544Z,17.88
2022-10-18T03:42:15.232Z,17.88
2022-10-18T03:44:41.890Z,17.86
2022-10-18T03:47:08.807Z,17.91
2022-10-18T03:49:35.439Z,17.91
2022-10-18T03:52:02.156Z,17.92
2022-10-18T03:54:28.861Z,17.95
2022-10-18T03:56:55.493Z,17.96
2022-10-18T03:59:23.136Z,17.98
2022-10-18T04:01:49.880Z,17.96
2022-10-18T04:04:16.764Z,18.00
2022-10-18T04:06:43.393Z,17.97
2022-10-18T04:09:10.505Z,17.94
2022-10-18T04:11:37.153Z,17.96
2022-10-18T04:14:04.003Z,17.95
2022-10-18T04:16:30.814Z,17.98
2022-10-18T04:18:57.528Z,17.93
2022-10-18T04:21:24.224Z,17.94
2022-10-18T04:23:51.174Z,17.96
2022-10-18T04:26:18.111Z,17.97
2022-10-18T04:28:44.889Z,17.97
2022-10-18T04:31:11.997Z,18.00
2022-10-18T04:33:38.909Z,17.99
2022-10-18T04:36:05.895Z,17.98
2022-10-18T04:38:32.683Z,17.96
2022-10-18T04:40:59.366Z,17.96
2022-10-18T04:43:26.173Z,17.87
2022-10-18T04:45:52.785Z,17.93
2022-10-18T04:48:19.991Z,17.93
2022-10-18T04:50:50.634Z,17.92
2022-10-18T04:53:18.094Z,17.91
2022-10-18T04:55:53.822Z,17.94
2022-10-18T04:58:20.519Z,17.94
2022-10-18T05:00:50.245Z,17.94
2022-10-18T05:03:17.170Z,17.95
2022-10-18T05:06:03.065Z,17.89
2022-10-18T05:08:30.522Z,17.93
2022-10-18T05:10:57.311Z,17.94
2022-10-18T05:13:24.034Z,17.92
2022-10-18T05:15:50.743Z,17.92
2022-10-18T05:18:17.527Z,17.94
2022-10-18T05:20:44.258Z,17.93
2022-10-18T05:23:11.028Z,17.91
2022-10-18T05:25:44.146Z,17.90
2022-10-18T05:28:34.117Z,17.91
2022-10-18T05:31:16.141Z,17.89
2022-10-18T05:33:42.879Z,17.87
2022-10-18T05:36:10.494Z,17.86
2022-10-18T05:38:44.113Z,17.85
2022-10-18T05:41:15.504Z,17.86
2022-10-18T05:43:42.430Z,17.86
2022-10-18T05:46:14.563Z,17.85
2022-10-18T05:48:43.515Z,17.83
2022-10-18T05:51:10.215Z,17.82
2022-10-18T05:53:38.083Z,17.81
2022-10-18T05:56:06.153Z,17.79
2022-10-18T05:58:33.421Z,17.69
2022-10-18T06:01:01.488Z,17.72
2022-10-18T06:03:30.426Z,17.72
2022-10-18T06:06:04.442Z,17.74
2022-10-18T06:08:31.397Z,17.74
2022-10-18T06:10:58.282Z,17.74
2022-10-18T06:13:25.074Z,17.74
2022-10-18T06:15:56.055Z,17.68
2022-10-18T06:18:22.921Z,17.67
2022-10-18T06:20:49.769Z,17.72
2022-10-18T06:23:16.593Z,17.69
2022-10-18T06:25:43.463Z,17.73
2022-10-18T06:28:11.515Z,17.70
2022-10-18T06:30:38.923Z,17.50
2022-10-18T06:33:05.731Z,17.34
2022-10-18T06:35:32.622Z,17.39
2022-10-18T06:37:59.279Z,17.50
2022-10-18T06:40:25.999Z,17.57
2022-10-18T06:43:00.607Z,17.61
2022-10-18T06:45:37.427Z,17.66
2022-10-18T06:48:04.186Z,17.67
2022-10-18T06:50:31.012Z,17.69
2022-10-18T06:52:58.196Z,17.71
2022-10-18T06:55:25.074Z,17.72
2022-10-18T06:57:53.308Z,17.74
2022-10-18T07:00:19.996Z,17.73
2022-10-18T07:02:46.722Z,17.68
2022-10-18T07:05:13.506Z,17.66
2022-10-18T07:07:40.214Z,17.65
2022-10-18T07:10:08.042Z,17.69
2022-10-18T07:12:36.058Z,17.75
2022-10-18T07:15:06.816Z,17.73
2022-10-18T07:17:35.748Z,17.73
2022-10-18T07:20:04.390Z,17.75
2022-10-18T07:22:31.024Z,17.73
2022-10-18T07:24:57.875Z,17.75
2022-10-18T07:27:24.560Z,17.76
2022-10-18T07:29:51.341Z,17.77
2022-10-18T07:32:18.008Z,17.83
2022-10-18T07:34:44.676Z,17.85
2022-10-18T07:37:11.556Z,17.89
2022-10-18T07:39:38.201Z,17.92
2022-10-18T07:42:04.880Z,17.87
2022-10-18T07:44:31.546Z,17.88
2022-10-18T07:46:58.238Z,17.97
2022-10-18T07:49:24.871Z,18.02
2022-10-18T07:51:51.527Z,17.95
2022-10-18T07:54:18.462Z,17.93
2022-10-18T07:56:45.115Z,17.96
2022-10-18T07:59:12.323Z,17.94
2022-10-18T08:01:39.175Z,18.00
2022-10-18T08:04:07.919Z,18.01
2022-10-18T08:06:35.769Z,17.99
2022-10-18T08:09:03.022Z,18.01
2022-10-18T08:11:29.712Z,17.99
2022-10-18T08:13:56.418Z,18.00
2022-10-18T08:16:25.703Z,18.01
2022-10-18T08:18:52.753Z,18.01
2022-10-18T08:21:21.257Z,18.00
2022-10-18T08:23:48.202Z,17.99
2022-10-18T08:26:20.080Z,18.05
2022-10-18T08:28:54.088Z,18.08
2022-10-18T08:31:25.677Z,18.07
2022-10-18T08:33:52.411Z,18.06
2022-10-18T08:36:19.531Z,18.07
2022-10-18T08:38:46.351Z,18.13
2022-10-18T08:41:31.814Z,18.04
2022-10-18T08:44:07.901Z,18.02
2022-10-18T08:46:36.228Z,18.13
2022-10-18T08:49:04.012Z,18.19
2022-10-18T08:51:44.048Z,18.16
2022-10-18T08:54:16.296Z,18.18
2022-10-18T08:56:47.260Z,18.22
2022-10-18T08:59:14.278Z,18.18
2022-10-18T09:02:03.293Z,18.14
2022-10-18T09:05:07.614Z,18.20
2022-10-18T09:07:52.637Z,18.18
2022-10-18T09:10:55.745Z,18.07
2022-10-18T09:13:48.226Z,18.13
2022-10-18T09:16:22.275Z,18.13
2022-10-18T09:18:48.989Z,18.12
2022-10-18T09:21:42.280Z,18.14
2022-10-18T09:24:14.749Z,18.19
2022-10-18T09:26:49.167Z,18.16
2022-10-18T09:29:31.836Z,18.19
2022-10-18T09:32:03.884Z,18.17
2022-10-18T09:34:39.022Z,18.16
2022-10-18T09:37:11.575Z,18.13
2022-10-18T09:39:38.425Z,18.16
2022-10-18T09:42:28.324Z,18.03
2022-10-18T09:45:04.215Z,18.06
2022-10-18T09:47:37.862Z,18.08
2022-10-18T09:50:17.726Z,18.13
2022-10-18T09:53:00.243Z,18.15
2022-10-18T09:55:32.032Z,18.16
2022-10-18T09:58:01.011Z,18.13
2022-10-18T10:00:49.979Z,18.15
2022-10-18T10:03:16.780Z,18.15
2022-10-18T10:05:44.096Z,18.12
2022-10-18T10:08:11.210Z,18.13
2022-10-18T10:10:46.831Z,18.19
2022-10-18T10:13:28.072Z,18.23
2022-10-18T10:16:01.891Z,18.21
2022-10-18T10:18:34.002Z,18.20
2022-10-18T10:21:06.240Z,18.11
2022-10-18T10:23:38.317Z,18.15
2022-10-18T10:26:18.924Z,18.19
2022-10-18T10:28:49.007Z,18.18
2022-10-18T10:31:19.279Z,18.16
2022-10-18T10:33:47.744Z,18.18
2022-10-18T10:36:20.826Z,18.21
2022-10-18T10:39:21.278Z,18.20
2022-10-18T10:41:59.350Z,18.20
2022-10-18T10:44:30.663Z,18.20
2022-10-18T10:46:58.192Z,18.26
2022-10-18T10:49:40.784Z,18.20
2022-10-18T10:52:26.940Z,18.24
2022-10-18T10:55:05.834Z,18.08
2022-10-18T10:57:38.709Z,18.21
2022-10-18T11:00:05.755Z,18.25
2022-10-18T11:02:34.693Z,18.28
2022-10-18T11:05:24.356Z,18.21
2022-10-18T11:07:53.121Z,18.22
2022-10-18T11:10:23.243Z,18.25
2022-10-18T11:13:02.644Z,18.26
2022-10-18T11:16:00.527Z,18.27
2022-10-18T11:18:34.857Z,18.27
2022-10-18T11:21:11.715Z,18.27
2022-10-18T11:23:40.157Z,18.21
2022-10-18T11:26:12.981Z,18.01
2022-10-18T11:29:44.622Z,18.18
2022-10-18T11:32:14.276Z,18.23
2022-10-18T11:34:50.165Z,18.17
2022-10-18T11:37:39.661Z,18.12
2022-10-18T11:40:24.561Z,18.13
2022-10-18T11:43:38.911Z,18.28
2022-10-18T11:46:54.484Z,18.31
2022-10-18T11:49:49.092Z,18.34
2022-10-18T11:52:34.542Z,18.38
2022-10-18T11:55:12.889Z,18.40
2022-10-18T11:58:20.902Z,18.44
2022-10-18T12:00:54.484Z,18.45
2022-10-18T12:03:33.885Z,18.43
2022-10-18T12:06:05.764Z,18.43
2022-10-18T12:08:53.270Z,18.40
2022-10-18T12:11:23.832Z,18.39
2022-10-18T12:13:53.930Z,18.34
2022-10-18T12:16:39.009Z,18.45
2022-10-18T12:19:23.298Z,18.48
2022-10-18T12:21:55.223Z,18.44
2022-10-18T12:24:25.750Z,18.46
2022-10-18T12:26:58.057Z,18.48
2022-10-18T12:29:26.103Z,18.53
2022-10-18T12:32:03.167Z,18.56
2022-10-18T12:34:36.808Z,18.54
2022-10-18T12:37:27.897Z,18.61
2022-10-18T12:40:18.823Z,18.61
2022-10-18T12:42:49.779Z,18.66
2022-10-18T12:45:30.338Z,18.64
2022-10-18T12:48:05.646Z,18.52
2022-10-18T12:50:38.084Z,18.54
2022-10-18T12:53:26.776Z,18.40
2022-10-18T12:55:54.445Z,18.35
2022-10-18T12:58:23.146Z,18.44
2022-10-18T13:00:49.766Z,18.49
2022-10-18T13:03:17.425Z,18.57
2022-10-18T13:05:55.248Z,18.62
2022-10-18T13:08:34.614Z,18.59
2022-10-18T13:11:10.569Z,18.51
2022-10-18T13:13:40.053Z,18.51
2022-10-18T13:16:20.617Z,18.61
2022-10-18T13:18:53.637Z,18.65
2022-10-18T13:21:40.044Z,18.65
2022-10-18T13:24:36.086Z,18.62
2022-10-18T13:27:42.185Z,18.71
2022-10-18T13:30:18.590Z,18.64
2022-10-18T13:32:57.534Z,18.65
2022-10-18T13:35:46.135Z,18.76
2022-10-18T13:38:34.167Z,18.77
2022-10-18T13:41:03.115Z,18.81
2022-10-18T13:43:57.830Z,18.82
2022-10-18T13:46:33.808Z,18.76
2022-10-18T13:49:21.866Z,18.75
2022-10-18T13:52:29.719Z,18.86
2022-10-18T13:55:27.127Z,18.99
2022-10-18T13:58:09.259Z,19.00
2022-10-18T14:01:04.108Z,19.04
2022-10-18T14:03:59.592Z,18.96
2022-10-18T14:06:34.784Z,18.90
2022-10-18T14:09:26.141Z,18.68
2022-10-18T14:12:26.954Z,18.73
2022-10-18T14:15:05.888Z,18.64
2022-10-18T14:17:47.003Z,18.75
2022-10-18T14:20:16.980Z,18.76
2022-10-18T14:22:48.854Z,18.58
2022-10-18T14:25:28.182Z,18.65
2022-10-18T14:28:12.598Z,18.65
2022-10-18T14:31:00.143Z,18.68
2022-10-18T14:33:38.483Z,18.61
2022-10-18T14:36:20.489Z,18.71
2022-10-18T14:38:50.930Z,18.62
2022-10-18T14:41:22.330Z,18.65
2022-10-18T14:43:49.909Z,18.63
2022-10-18T14:46:27.285Z,18.62
2022-10-18T14:49:04.489Z,18.65
2022-10-18T14:51:34.557Z,18.65
2022-10-18T14:54:01.486Z,18.64
2022-10-18T14:56:33.739Z,18.56
2022-10-18T14:59:03.178Z,18.53
2022-10-18T15:01:31.640Z,18.59
2022-10-18T15:04:08.599Z,18.42
2022-10-18T15:06:35.376Z,18.55
2022-10-18T15:09:04.645Z,18.63
2022-10-18T15:11:32.404Z,18.53
2022-10-18T15:14:06.980Z,18.57
2022-10-18T15:16:34.210Z,18.52
2022-10-18T15:19:03.909Z,18.60
2022-10-18T15:21:31.280Z,18.56
2022-10-18T15:24:34.583Z,18.61
2022-10-18T15:27:23.140Z,18.60
2022-10-18T15:29:50.213Z,18.58
2022-10-18T15:32:31.124Z,18.55
2022-10-18T15:35:34.848Z,18.53
2022-10-18T15:38:16.170Z,18.47
2022-10-18T15:40:43.324Z,18.45
2022-10-18T15:43:28.539Z,18.39
2022-10-18T15:46:01.567Z,18.33
2022-10-18T15:48:42.513Z,18.31
2022-10-18T15:51:24.007Z,18.27
2022-10-18T15:53:54.681Z,18.23
2022-10-18T15:56:37.610Z,18.17
2022-10-18T15:59:06.821Z,18.09
2022-10-18T16:01:36.424Z,18.01
2022-10-18T16:04:18.284Z,17.95
2022-10-18T16:06:45.062Z,17.88
2022-10-18T16:09:17.410Z,17.82
2022-10-18T16:11:44.582Z,17.74
2022-10-18T16:14:11.333Z,17.67
2022-10-18T16:16:39.445Z,17.60
2022-10-18T16:19:07.074Z,17.50
2022-10-18T16:21:38.506Z,17.44
2022-10-18T16:24:06.032Z,17.37
2022-10-18T16:26:33.174Z,17.29
2022-10-18T16:29:00.252Z,17.24
2022-10-18T16:31:29.138Z,17.13
2022-10-18T16:33:57.122Z,17.08
2022-10-18T16:36:27.045Z,17.02
2022-10-18T16:38:55.218Z,16.93
2022-10-18T16:41:22.264Z,16.90
2022-10-18T16:43:50.293Z,16.83
2022-10-18T16:46:22.759Z,16.80
2022-10-18T16:48:50.675Z,16.69
2022-10-18T16:51:17.799Z,16.64
2022-10-18T16:53:44.723Z,16.60
2022-10-18T16:56:20.043Z,16.55
2022-10-18T16:58:47.948Z,16.48
2022-10-18T17:01:16.859Z,16.45
2022-10-18T17:03:44.290Z,16.39
2022-10-18T17:06:31.262Z,16.35
2022-10-18T17:08:58.665Z,16.29
2022-10-18T17:11:27.193Z,16.23
2022-10-18T17:13:54.515Z,16.19
2022-10-18T17:16:33.020Z,16.15
2022-10-18T17:19:02.033Z,16.10
2022-10-18T17:21:31.745Z,16.05
2022-10-18T17:24:02.348Z,16.00
2022-10-18T17:26:30.266Z,15.95
2022-10-18T17:29:05.590Z,15.88
2022-10-18T17:31:33.069Z,15.83
2022-10-18T17:34:01.957Z,15.80
2022-10-18T17:36:30.811Z,15.74
2022-10-18T17:38:58.086Z,15.67
2022-10-18T17:41:26.685Z,15.66
2022-10-18T17:43:53.613Z,15.60
2022-10-18T17:46:21.571Z,15.56
2022-10-18T17:48:48.465Z,15.48
2022-10-18T17:51:17.255Z,15.44
2022-10-18T17:53:45.064Z,15.41
2022-10-18T17:56:12.826Z,15.35
2022-10-18T17:58:40.169Z,15.32
2022-10-18T18:01:12.054Z,15.27
2022-10-18T18:03:39.206Z,15.23
2022-10-18T18:06:16.153Z,15.17
2022-10-18T18:08:43.169Z,15.09
2022-10-18T18:11:10.096Z,15.05
2022-10-18T18:13:37.062Z,15.05
2022-10-18T18:16:14.161Z,15.04
2022-10-18T18:18:41.044Z,15.03
2022-10-18T18:21:07.698Z,15.00
2022-10-18T18:23:34.708Z,14.97
2022-10-18T18:26:01.622Z,14.93
2022-10-18T18:28:28.751Z,14.90
2022-10-18T18:30:55.921Z,14.84
2022-10-18T18:33:26.252Z,14.82
2022-10-18T18:35:57.347Z,14.79
2022-10-18T18:38:26.199Z,14.76
2022-10-18T18:41:23.154Z,14.74
2022-10-18T18:43:59.312Z,14.66
2022-10-18T18:46:29.034Z,14.62
2022-10-18T18:48:57.460Z,14.59
2022-10-18T18:51:26.940Z,14.55
2022-10-18T18:53:53.746Z,14.50
2022-10-18T18:56:25.275Z,14.46
2022-10-18T18:58:53.468Z,14.40
2022-10-18T19:01:25.330Z,14.40
2022-10-18T19:03:53.617Z,14.37
2022-10-18T19:06:28.980Z,14.35
2022-10-18T19:09:04.617Z,14.32
2022-10-18T19:11:34.635Z,14.31
2022-10-18T19:14:04.239Z,14.27
2022-10-18T19:16:35.190Z,14.23
2022-10-18T19:19:05.321Z,14.22
2022-10-18T19:21:36.886Z,14.20
2022-10-18T19:24:04.671Z,14.18
2022-10-18T19:26:34.512Z,14.16
2022-10-18T19:29:10.027Z,14.11
2022-10-18T19:31:37.663Z,14.06
2022-10-18T19:34:06.729Z,14.07
2022-10-18T19:36:35.272Z,14.02
2022-10-18T19:39:02.815Z,14.00
2022-10-18T19:41:29.826Z,13.98
2022-10-18T19:43:57.300Z,13.96
2022-10-18T19:46:25.092Z,13.93
2022-10-18T19:48:54.284Z,13.90
2022-10-18T19:51:31.478Z,13.91
2022-10-18T19:53:59.311Z,13.91
2022-10-18T19:56:27.483Z,13.92
2022-10-18T19:58:54.837Z,13.89
2022-10-18T20:01:22.501Z,13.90
2022-10-18T20:03:49.710Z,13.85
2022-10-18T20:06:18.216Z,13.86
2022-10-18T20:08:45.039Z,13.84
2022-10-18T20:11:14.870Z,13.83
2022-10-18T20:13:46.906Z,13.80
2022-10-18T20:16:19.255Z,13.77
2022-10-18T20:18:46.937Z,13.73
2022-10-18T20:21:16.325Z,13.72
2022-10-18T20:23:44.174Z,13.69
2022-10-18T20:26:19.809Z,13.68
2022-10-18T20:28:59.603Z,13.65
2022-10-18T20:31:31.632Z,13.63
2022-10-18T20:34:01.027Z,13.60
2022-10-18T20:36:29.331Z,13.55
2022-10-18T20:38:56.243Z,13.52
2022-10-18T20:41:25.822Z,13.50
2022-10-18T20:43:58.149Z,13.47
2022-10-18T20:46:25.835Z,13.43
2022-10-18T20:48:53.649Z,13.42
2022-10-18T20:51:21.024Z,13.39
2022-10-18T20:53:47.696Z,13.37
2022-10-18T20:56:16.899Z,13.35
2022-10-18T20:58:44.916Z,13.31
2022-10-18T21:01:23.369Z,13.30
2022-10-18T21:03:51.621Z,13.23
2022-10-18T21:06:19.787Z,13.23
2022-10-18T21:08:47.375Z,13.19
2022-10-18T21:11:15.199Z,13.17
2022-10-18T21:13:41.872Z,13.16
2022-10-18T21:16:08.704Z,13.15
2022-10-18T21:18:37.090Z,13.11
2022-10-18T21:23:40.801Z,13.04
2022-10-18T21:26:07.894Z,13.04
2022-10-18T21:28:34.854Z,13.02
2022-10-18T21:31:17.402Z,13.01
2022-10-18T21:33:44.695Z,12.96
2022-10-18T21:36:12.241Z,12.93
2022-10-18T21:38:44.349Z,12.91
2022-10-18T21:41:12.454Z,12.93
2022-10-18T21:43:41.140Z,12.93
2022-10-18T21:46:07.980Z,12.93
2022-10-18T21:48:34.620Z,12.93
2022-10-18T21:51:05.675Z,12.88
2022-10-18T21:53:32.533Z,12.91
2022-10-18T21:56:13.594Z,12.91
2022-10-18T21:58:41.127Z,12.90
2022-10-18T22:01:16.578Z,12.92
2022-10-18T22:03:44.529Z,12.94
2022-10-18T22:06:16.665Z,12.91
2022-10-18T22:08:45.343Z,12.91
2022-10-18T22:11:12.914Z,12.91
2022-10-18T22:13:40.088Z,12.88
2022-10-18T22:16:08.031Z,12.89
2022-10-18T22:18:35.033Z,12.87
2022-10-18T22:21:07.158Z,12.86
2022-10-18T22:23:36.175Z,12.85
2022-10-18T22:26:05.161Z,12.84
2022-10-18T22:28:31.908Z,12.84
2022-10-18T22:30:59.206Z,12.86
2022-10-18T22:33:27.254Z,12.86
2022-10-18T22:35:53.928Z,12.87
2022-10-18T22:38:20.788Z,12.92
2022-10-18T22:40:47.575Z,12.94
2022-10-18T22:43:14.330Z,12.97
2022-10-18T22:45:41.818Z,13.01
2022-10-18T22:48:08.577Z,13.04
2022-10-18T22:50:35.212Z,13.08
2022-10-18T22:53:01.900Z,13.09
2022-10-18T22:55:28.521Z,13.11
2022-10-18T22:57:56.105Z,13.16
2022-10-18T23:00:22.804Z,13.12
2022-10-18T23:02:50.085Z,13.13
2022-10-18T23:05:16.803Z,13.16
2022-10-18T23:07:47.756Z,13.23
2022-10-18T23:10:14.770Z,13.21
2022-10-18T23:12:41.531Z,13.26
2022-10-18T23:15:08.512Z,13.28
2022-10-18T23:17:35.535Z,13.27
2022-10-18T23:20:02.562Z,13.36
2022-10-18T23:22:29.234Z,13.37
2022-10-18T23:24:56.041Z,13.39
2022-10-18T23:27:22.717Z,13.40
2022-10-18T23:29:49.352Z,13.44
2022-10-18T23:32:16.545Z,13.46
2022-10-18T23:34:43.269Z,13.48
2022-10-18T23:37:09.938Z,13.50
2022-10-18T23:39:36.623Z,13.54
2022-10-18T23:42:03.292Z,13.53
2022-10-18T23:44:30.031Z,13.55
2022-10-18T23:46:56.762Z,13.53
2022-10-18T23:49:23.442Z,13.55
2022-10-18T23:51:50.109Z,13.56
2022-10-18T23:54:16.907Z,13.58
2022-10-18T23:56:43.559Z,13.61
2022-10-18T23:59:10.197Z,13.60
